sensor_id;sensor_type;location;lat;lon;timestamp;P1;durP1;ratioP1;P2;durP2;ratioP2
17949;SDS011;9100;48.700;9.316;2024-01-06T00:00:19;3;;;2.6;;
17949;SDS011;9100;48.700;9.316;2024-01-06T00:01:16;3.3;;;2.4;;
17949;SDS011;9100;48.700;9.316;2024-01-06T00:01:19;3.3;;;2.4;;
17949;SDS011;9100;48.700;9.316;2024-01-06T00:02:19;3.3;;;2.4;;
17949;SDS011;9100;48.700;9.316;2024-01-06T00:03:19;3.3;;;2.4;;
17949;SDS011;9100;48.700;9.316;2024-01-06T00:04:19;3.3;;;2.4;;
17949;SDS011;9100;48.700;9.316;2024-01-06T00:05:19;3.3;;;2.4;;
17949;SDS011;9100;48.700;9.316;2024-01-06T00:06:16;2.4;;;1.7;;
17949;SDS011;9100;48.700;9.316;2024-01-06T00:06:19;2.4;;;1.7;;
17949;SDS011;9100;48.700;9.316;2024-01-06T00:07:19;2.4;;;1.7;;
17949;SDS011;9100;48.700;9.316;2024-01-06T00:08:19;2.4;;;1.7;;
17949;SDS011;9100;48.700;9.316;2024-01-06T00:09:19;2.4;;;1.7;;
17949;SDS011;9100;48.700;9.316;2024-01-06T00:10:19;2.4;;;1.7;;
17949;SDS011;9100;48.700;9.316;2024-01-06T00:11:16;2.2;;;1.7;;
17949;SDS011;9100;48.700;9.316;2024-01-06T00:11:19;2.2;;;1.7;;
17949;SDS011;9100;48.700;9.316;2024-01-06T00:12:19;2.2;;;1.7;;
17949;SDS011;9100;48.700;9.316;2024-01-06T00:13:19;2.2;;;1.7;;
17949;SDS011;9100;48.700;9.316;2024-01-06T00:14:19;2.2;;;1.7;;
17949;SDS011;9100;48.700;9.316;2024-01-06T00:15:19;2.2;;;1.7;;
17949;SDS011;9100;48.700;9.316;2024-01-06T00:16:16;1.9;;;1.8;;
17949;SDS011;9100;48.700;9.316;2024-01-06T00:16:20;1.9;;;1.8;;
17949;SDS011;9100;48.700;9.316;2024-01-06T00:17:19;1.9;;;1.8;;
17949;SDS011;9100;48.700;9.316;2024-01-06T00:18:19;1.9;;;1.8;;
17949;SDS011;9100;48.700;9.316;2024-01-06T00:19:19;1.9;;;1.8;;
17949;SDS011;9100;48.700;9.316;2024-01-06T00:20:19;1.9;;;1.8;;
17949;SDS011;9100;48.700;9.316;2024-01-06T00:21:16;2.4;;;1.5;;
17949;SDS011;9100;48.700;9.316;2024-01-06T00:21:19;2.4;;;1.5;;
17949;SDS011;9100;48.700;9.316;2024-01-06T00:22:19;2.4;;;1.5;;
17949;SDS011;9100;48.700;9.316;2024-01-06T00:23:19;2.4;;;1.5;;
17949;SDS011;9100;48.700;9.316;2024-01-06T00:24:19;2.4;;;1.5;;
17949;SDS011;9100;48.700;9.316;2024-01-06T00:25:19;2.4;;;1.5;;
17949;SDS011;9100;48.700;9.316;2024-01-06T00:26:16;1.8;;;1.6;;
17949;SDS011;9100;48.700;9.316;2024-01-06T00:26:19;1.8;;;1.6;;
17949;SDS011;9100;48.700;9.316;2024-01-06T00:27:19;1.8;;;1.6;;
17949;SDS011;9100;48.700;9.316;2024-01-06T00:28:19;1.8;;;1.6;;
17949;SDS011;9100;48.700;9.316;2024-01-06T00:29:19;1.8;;;1.6;;
17949;SDS011;9100;48.700;9.316;2024-01-06T00:30:19;1.8;;;1.6;;
17949;SDS011;9100;48.700;9.316;2024-01-06T00:31:16;1.8;;;1.7;;
17949;SDS011;9100;48.700;9.316;2024-01-06T00:31:19;1.8;;;1.7;;
17949;SDS011;9100;48.700;9.316;2024-01-06T00:32:19;1.8;;;1.7;;
17949;SDS011;9100;48.700;9.316;2024-01-06T00:33:19;1.8;;;1.7;;
17949;SDS011;9100;48.700;9.316;2024-01-06T00:34:19;1.8;;;1.7;;
17949;SDS011;9100;48.700;9.316;2024-01-06T00:35:19;1.8;;;1.7;;
17949;SDS011;9100;48.700;9.316;2024-01-06T00:36:16;2.1;;;1.5;;
17949;SDS011;9100;48.700;9.316;2024-01-06T00:36:19;2.1;;;1.5;;
17949;SDS011;9100;48.700;9.316;2024-01-06T00:37:20;2.1;;;1.5;;
17949;SDS011;9100;48.700;9.316;2024-01-06T00:38:19;2.1;;;1.5;;
17949;SDS011;9100;48.700;9.316;2024-01-06T00:39:19;2.1;;;1.5;;
17949;SDS011;9100;48.700;9.316;2024-01-06T00:40:19;2.1;;;1.5;;
17949;SDS011;9100;48.700;9.316;2024-01-06T00:41:16;54.4;;;30.4;;
17949;SDS011;9100;48.700;9.316;2024-01-06T00:41:19;54.4;;;30.4;;
17949;SDS011;9100;48.700;9.316;2024-01-06T00:42:19;54.4;;;30.4;;
17949;SDS011;9100;48.700;9.316;2024-01-06T00:43:19;54.4;;;30.4;;
17949;SDS011;9100;48.700;9.316;2024-01-06T00:44:19;54.4;;;30.4;;
17949;SDS011;9100;48.700;9.316;2024-01-06T00:45:19;54.4;;;30.4;;
17949;SDS011;9100;48.700;9.316;2024-01-06T00:46:16;2.1;;;2;;
17949;SDS011;9100;48.700;9.316;2024-01-06T00:46:19;2.1;;;2;;
17949;SDS011;9100;48.700;9.316;2024-01-06T00:47:19;2.1;;;2;;
17949;SDS011;9100;48.700;9.316;2024-01-06T00:48:19;2.1;;;2;;
17949;SDS011;9100;48.700;9.316;2024-01-06T00:49:19;2.1;;;2;;
17949;SDS011;9100;48.700;9.316;2024-01-06T00:50:19;2.1;;;2;;
17949;SDS011;9100;48.700;9.316;2024-01-06T00:51:16;2.6;;;2.1;;
17949;SDS011;9100;48.700;9.316;2024-01-06T00:51:19;2.6;;;2.1;;
17949;SDS011;9100;48.700;9.316;2024-01-06T00:52:19;2.6;;;2.1;;
17949;SDS011;9100;48.700;9.316;2024-01-06T00:53:21;2.6;;;2.1;;
17949;SDS011;9100;48.700;9.316;2024-01-06T00:54:19;2.6;;;2.1;;
17949;SDS011;9100;48.700;9.316;2024-01-06T00:55:20;2.6;;;2.1;;
17949;SDS011;9100;48.700;9.316;2024-01-06T00:56:16;3.4;;;1.7;;
17949;SDS011;9100;48.700;9.316;2024-01-06T00:56:19;3.4;;;1.7;;
17949;SDS011;9100;48.700;9.316;2024-01-06T00:57:19;3.4;;;1.7;;
17949;SDS011;9100;48.700;9.316;2024-01-06T00:58:19;3.4;;;1.7;;
17949;SDS011;9100;48.700;9.316;2024-01-06T00:59:20;3.4;;;1.7;;
17949;SDS011;9100;48.700;9.316;2024-01-06T01:00:19;3.4;;;1.7;;
17949;SDS011;9100;48.700;9.316;2024-01-06T01:01:16;3.1;;;1.7;;
17949;SDS011;9100;48.700;9.316;2024-01-06T01:01:19;3.1;;;1.7;;
17949;SDS011;9100;48.700;9.316;2024-01-06T01:02:19;3.1;;;1.7;;
17949;SDS011;9100;48.700;9.316;2024-01-06T01:03:19;3.1;;;1.7;;
17949;SDS011;9100;48.700;9.316;2024-01-06T01:04:19;3.1;;;1.7;;
17949;SDS011;9100;48.700;9.316;2024-01-06T01:05:19;3.1;;;1.7;;
17949;SDS011;9100;48.700;9.316;2024-01-06T01:06:16;6.6;;;3.6;;
17949;SDS011;9100;48.700;9.316;2024-01-06T01:06:19;6.6;;;3.6;;
17949;SDS011;9100;48.700;9.316;2024-01-06T01:07:19;6.6;;;3.6;;
17949;SDS011;9100;48.700;9.316;2024-01-06T01:08:19;6.6;;;3.6;;
17949;SDS011;9100;48.700;9.316;2024-01-06T01:09:19;6.6;;;3.6;;
17949;SDS011;9100;48.700;9.316;2024-01-06T01:10:19;6.6;;;3.6;;
17949;SDS011;9100;48.700;9.316;2024-01-06T01:11:16;8.1;;;3.4;;
17949;SDS011;9100;48.700;9.316;2024-01-06T01:11:19;8.1;;;3.4;;
17949;SDS011;9100;48.700;9.316;2024-01-06T01:12:19;8.1;;;3.4;;
17949;SDS011;9100;48.700;9.316;2024-01-06T01:13:19;8.1;;;3.4;;
17949;SDS011;9100;48.700;9.316;2024-01-06T01:14:19;8.1;;;3.4;;
17949;SDS011;9100;48.700;9.316;2024-01-06T01:15:19;8.1;;;3.4;;
17949;SDS011;9100;48.700;9.316;2024-01-06T01:16:16;4;;;2.7;;
17949;SDS011;9100;48.700;9.316;2024-01-06T01:16:19;4;;;2.7;;
17949;SDS011;9100;48.700;9.316;2024-01-06T01:17:19;4;;;2.7;;
17949;SDS011;9100;48.700;9.316;2024-01-06T01:18:19;4;;;2.7;;
17949;SDS011;9100;48.700;9.316;2024-01-06T01:19:19;4;;;2.7;;
17949;SDS011;9100;48.700;9.316;2024-01-06T01:20:19;4;;;2.7;;
17949;SDS011;9100;48.700;9.316;2024-01-06T01:21:16;2.7;;;2;;
17949;SDS011;9100;48.700;9.316;2024-01-06T01:21:19;2.7;;;2;;
17949;SDS011;9100;48.700;9.316;2024-01-06T01:22:19;2.7;;;2;;
17949;SDS011;9100;48.700;9.316;2024-01-06T01:23:19;2.7;;;2;;
17949;SDS011;9100;48.700;9.316;2024-01-06T01:24:19;2.7;;;2;;
17949;SDS011;9100;48.700;9.316;2024-01-06T01:25:19;2.7;;;2;;
17949;SDS011;9100;48.700;9.316;2024-01-06T01:26:16;3;;;1.4;;
17949;SDS011;9100;48.700;9.316;2024-01-06T01:26:19;3;;;1.4;;
17949;SDS011;9100;48.700;9.316;2024-01-06T01:27:19;3;;;1.4;;
17949;SDS011;9100;48.700;9.316;2024-01-06T01:28:19;3;;;1.4;;
17949;SDS011;9100;48.700;9.316;2024-01-06T01:29:19;3;;;1.4;;
17949;SDS011;9100;48.700;9.316;2024-01-06T01:30:19;3;;;1.4;;
17949;SDS011;9100;48.700;9.316;2024-01-06T01:31:16;1.3;;;1.2;;
17949;SDS011;9100;48.700;9.316;2024-01-06T01:31:19;1.3;;;1.2;;
17949;SDS011;9100;48.700;9.316;2024-01-06T01:32:20;1.3;;;1.2;;
17949;SDS011;9100;48.700;9.316;2024-01-06T01:33:19;1.3;;;1.2;;
17949;SDS011;9100;48.700;9.316;2024-01-06T01:34:19;1.3;;;1.2;;
17949;SDS011;9100;48.700;9.316;2024-01-06T01:35:19;1.3;;;1.2;;
17949;SDS011;9100;48.700;9.316;2024-01-06T01:36:16;1.5;;;1.4;;
17949;SDS011;9100;48.700;9.316;2024-01-06T01:36:19;1.5;;;1.4;;
17949;SDS011;9100;48.700;9.316;2024-01-06T01:37:19;1.5;;;1.4;;
17949;SDS011;9100;48.700;9.316;2024-01-06T01:38:19;1.5;;;1.4;;
17949;SDS011;9100;48.700;9.316;2024-01-06T01:39:19;1.5;;;1.4;;
17949;SDS011;9100;48.700;9.316;2024-01-06T01:40:19;1.5;;;1.4;;
17949;SDS011;9100;48.700;9.316;2024-01-06T01:41:16;1.1;;;1.1;;
17949;SDS011;9100;48.700;9.316;2024-01-06T01:41:19;1.1;;;1.1;;
17949;SDS011;9100;48.700;9.316;2024-01-06T01:42:19;1.1;;;1.1;;
17949;SDS011;9100;48.700;9.316;2024-01-06T01:43:20;1.1;;;1.1;;
17949;SDS011;9100;48.700;9.316;2024-01-06T01:44:19;1.1;;;1.1;;
17949;SDS011;9100;48.700;9.316;2024-01-06T01:45:19;1.1;;;1.1;;
17949;SDS011;9100;48.700;9.316;2024-01-06T01:46:16;2.8;;;1.5;;
17949;SDS011;9100;48.700;9.316;2024-01-06T01:46:19;2.8;;;1.5;;
17949;SDS011;9100;48.700;9.316;2024-01-06T01:47:19;2.8;;;1.5;;
17949;SDS011;9100;48.700;9.316;2024-01-06T01:48:20;2.8;;;1.5;;
17949;SDS011;9100;48.700;9.316;2024-01-06T01:49:19;2.8;;;1.5;;
17949;SDS011;9100;48.700;9.316;2024-01-06T01:50:19;2.8;;;1.5;;
17949;SDS011;9100;48.700;9.316;2024-01-06T01:51:16;1.7;;;1.3;;
17949;SDS011;9100;48.700;9.316;2024-01-06T01:51:19;1.7;;;1.3;;
17949;SDS011;9100;48.700;9.316;2024-01-06T01:52:19;1.7;;;1.3;;
17949;SDS011;9100;48.700;9.316;2024-01-06T01:53:19;1.7;;;1.3;;
17949;SDS011;9100;48.700;9.316;2024-01-06T01:54:19;1.7;;;1.3;;
17949;SDS011;9100;48.700;9.316;2024-01-06T01:55:19;1.7;;;1.3;;
17949;SDS011;9100;48.700;9.316;2024-01-06T01:56:16;1.4;;;1.3;;
17949;SDS011;9100;48.700;9.316;2024-01-06T01:56:19;1.4;;;1.3;;
17949;SDS011;9100;48.700;9.316;2024-01-06T01:57:19;1.4;;;1.3;;
17949;SDS011;9100;48.700;9.316;2024-01-06T01:58:19;1.4;;;1.3;;
17949;SDS011;9100;48.700;9.316;2024-01-06T01:59:19;1.4;;;1.3;;
17949;SDS011;9100;48.700;9.316;2024-01-06T02:00:19;1.4;;;1.3;;
17949;SDS011;9100;48.700;9.316;2024-01-06T02:01:16;1.5;;;1.4;;
17949;SDS011;9100;48.700;9.316;2024-01-06T02:01:19;1.5;;;1.4;;
17949;SDS011;9100;48.700;9.316;2024-01-06T02:02:19;1.5;;;1.4;;
17949;SDS011;9100;48.700;9.316;2024-01-06T02:03:19;1.5;;;1.4;;
17949;SDS011;9100;48.700;9.316;2024-01-06T02:04:19;1.5;;;1.4;;
17949;SDS011;9100;48.700;9.316;2024-01-06T02:05:19;1.5;;;1.4;;
17949;SDS011;9100;48.700;9.316;2024-01-06T02:06:16;2.2;;;1.6;;
17949;SDS011;9100;48.700;9.316;2024-01-06T02:06:19;2.2;;;1.6;;
17949;SDS011;9100;48.700;9.316;2024-01-06T02:07:19;2.2;;;1.6;;
17949;SDS011;9100;48.700;9.316;2024-01-06T02:08:19;2.2;;;1.6;;
17949;SDS011;9100;48.700;9.316;2024-01-06T02:09:19;2.2;;;1.6;;
17949;SDS011;9100;48.700;9.316;2024-01-06T02:10:19;2.2;;;1.6;;
17949;SDS011;9100;48.700;9.316;2024-01-06T02:11:16;1.7;;;1.5;;
17949;SDS011;9100;48.700;9.316;2024-01-06T02:11:19;1.7;;;1.5;;
17949;SDS011;9100;48.700;9.316;2024-01-06T02:12:19;1.7;;;1.5;;
17949;SDS011;9100;48.700;9.316;2024-01-06T02:13:20;1.7;;;1.5;;
17949;SDS011;9100;48.700;9.316;2024-01-06T02:14:19;1.7;;;1.5;;
17949;SDS011;9100;48.700;9.316;2024-01-06T02:15:19;1.7;;;1.5;;
17949;SDS011;9100;48.700;9.316;2024-01-06T02:16:16;2.1;;;1.4;;
17949;SDS011;9100;48.700;9.316;2024-01-06T02:16:19;2.1;;;1.4;;
17949;SDS011;9100;48.700;9.316;2024-01-06T02:17:19;2.1;;;1.4;;
17949;SDS011;9100;48.700;9.316;2024-01-06T02:18:19;2.1;;;1.4;;
17949;SDS011;9100;48.700;9.316;2024-01-06T02:19:19;2.1;;;1.4;;
17949;SDS011;9100;48.700;9.316;2024-01-06T02:20:19;2.1;;;1.4;;
17949;SDS011;9100;48.700;9.316;2024-01-06T02:21:16;2.5;;;1.7;;
17949;SDS011;9100;48.700;9.316;2024-01-06T02:21:19;2.5;;;1.7;;
17949;SDS011;9100;48.700;9.316;2024-01-06T02:22:19;2.5;;;1.7;;
17949;SDS011;9100;48.700;9.316;2024-01-06T02:23:19;2.5;;;1.7;;
17949;SDS011;9100;48.700;9.316;2024-01-06T02:24:19;2.5;;;1.7;;
17949;SDS011;9100;48.700;9.316;2024-01-06T02:25:19;2.5;;;1.7;;
17949;SDS011;9100;48.700;9.316;2024-01-06T02:26:16;1.7;;;1.6;;
17949;SDS011;9100;48.700;9.316;2024-01-06T02:26:19;1.7;;;1.6;;
17949;SDS011;9100;48.700;9.316;2024-01-06T02:27:19;1.7;;;1.6;;
17949;SDS011;9100;48.700;9.316;2024-01-06T02:28:19;1.7;;;1.6;;
17949;SDS011;9100;48.700;9.316;2024-01-06T02:29:19;1.7;;;1.6;;
17949;SDS011;9100;48.700;9.316;2024-01-06T02:30:19;1.7;;;1.6;;
17949;SDS011;9100;48.700;9.316;2024-01-06T02:31:16;4.5;;;2;;
17949;SDS011;9100;48.700;9.316;2024-01-06T02:31:19;4.5;;;2;;
17949;SDS011;9100;48.700;9.316;2024-01-06T02:32:19;4.5;;;2;;
17949;SDS011;9100;48.700;9.316;2024-01-06T02:33:19;4.5;;;2;;
17949;SDS011;9100;48.700;9.316;2024-01-06T02:34:19;4.5;;;2;;
17949;SDS011;9100;48.700;9.316;2024-01-06T02:35:20;4.5;;;2;;
17949;SDS011;9100;48.700;9.316;2024-01-06T02:36:16;1.5;;;1.4;;
17949;SDS011;9100;48.700;9.316;2024-01-06T02:36:19;1.5;;;1.4;;
17949;SDS011;9100;48.700;9.316;2024-01-06T02:37:19;1.5;;;1.4;;
17949;SDS011;9100;48.700;9.316;2024-01-06T02:38:19;1.5;;;1.4;;
17949;SDS011;9100;48.700;9.316;2024-01-06T02:39:20;1.5;;;1.4;;
17949;SDS011;9100;48.700;9.316;2024-01-06T02:40:19;1.5;;;1.4;;
17949;SDS011;9100;48.700;9.316;2024-01-06T02:41:16;2.6;;;1.7;;
17949;SDS011;9100;48.700;9.316;2024-01-06T02:41:19;2.6;;;1.7;;
17949;SDS011;9100;48.700;9.316;2024-01-06T02:42:19;2.6;;;1.7;;
17949;SDS011;9100;48.700;9.316;2024-01-06T02:43:20;2.6;;;1.7;;
17949;SDS011;9100;48.700;9.316;2024-01-06T02:44:20;2.6;;;1.7;;
17949;SDS011;9100;48.700;9.316;2024-01-06T02:45:19;2.6;;;1.7;;
17949;SDS011;9100;48.700;9.316;2024-01-06T02:46:16;3.8;;;1.7;;
17949;SDS011;9100;48.700;9.316;2024-01-06T02:46:19;3.8;;;1.7;;
17949;SDS011;9100;48.700;9.316;2024-01-06T02:47:19;3.8;;;1.7;;
17949;SDS011;9100;48.700;9.316;2024-01-06T02:48:20;3.8;;;1.7;;
17949;SDS011;9100;48.700;9.316;2024-01-06T02:49:20;3.8;;;1.7;;
17949;SDS011;9100;48.700;9.316;2024-01-06T02:50:20;3.8;;;1.7;;
17949;SDS011;9100;48.700;9.316;2024-01-06T02:51:16;4.6;;;1.6;;
17949;SDS011;9100;48.700;9.316;2024-01-06T02:51:19;4.6;;;1.6;;
17949;SDS011;9100;48.700;9.316;2024-01-06T02:52:19;4.6;;;1.6;;
17949;SDS011;9100;48.700;9.316;2024-01-06T02:53:19;4.6;;;1.6;;
17949;SDS011;9100;48.700;9.316;2024-01-06T02:54:19;4.6;;;1.6;;
17949;SDS011;9100;48.700;9.316;2024-01-06T02:55:20;4.6;;;1.6;;
17949;SDS011;9100;48.700;9.316;2024-01-06T02:56:16;3.1;;;1.7;;
17949;SDS011;9100;48.700;9.316;2024-01-06T02:56:20;3.1;;;1.7;;
17949;SDS011;9100;48.700;9.316;2024-01-06T02:57:19;3.1;;;1.7;;
17949;SDS011;9100;48.700;9.316;2024-01-06T02:58:19;3.1;;;1.7;;
17949;SDS011;9100;48.700;9.316;2024-01-06T02:59:19;3.1;;;1.7;;
17949;SDS011;9100;48.700;9.316;2024-01-06T03:00:20;3.1;;;1.7;;
17949;SDS011;9100;48.700;9.316;2024-01-06T03:01:17;2;;;1.7;;
17949;SDS011;9100;48.700;9.316;2024-01-06T03:01:19;2;;;1.7;;
17949;SDS011;9100;48.700;9.316;2024-01-06T03:02:19;2;;;1.7;;
17949;SDS011;9100;48.700;9.316;2024-01-06T03:03:19;2;;;1.7;;
17949;SDS011;9100;48.700;9.316;2024-01-06T03:04:19;2;;;1.7;;
17949;SDS011;9100;48.700;9.316;2024-01-06T03:05:19;2;;;1.7;;
17949;SDS011;9100;48.700;9.316;2024-01-06T03:06:16;1.8;;;1.7;;
17949;SDS011;9100;48.700;9.316;2024-01-06T03:06:19;1.8;;;1.7;;
17949;SDS011;9100;48.700;9.316;2024-01-06T03:07:20;1.8;;;1.7;;
17949;SDS011;9100;48.700;9.316;2024-01-06T03:08:19;1.8;;;1.7;;
17949;SDS011;9100;48.700;9.316;2024-01-06T03:09:19;1.8;;;1.7;;
17949;SDS011;9100;48.700;9.316;2024-01-06T03:10:19;1.8;;;1.7;;
17949;SDS011;9100;48.700;9.316;2024-01-06T03:11:16;1.9;;;1.8;;
17949;SDS011;9100;48.700;9.316;2024-01-06T03:11:20;1.9;;;1.8;;
17949;SDS011;9100;48.700;9.316;2024-01-06T03:12:19;1.9;;;1.8;;
17949;SDS011;9100;48.700;9.316;2024-01-06T03:13:20;1.9;;;1.8;;
17949;SDS011;9100;48.700;9.316;2024-01-06T03:14:19;1.9;;;1.8;;
17949;SDS011;9100;48.700;9.316;2024-01-06T03:15:19;1.9;;;1.8;;
17949;SDS011;9100;48.700;9.316;2024-01-06T03:16:16;2.7;;;1.9;;
17949;SDS011;9100;48.700;9.316;2024-01-06T03:16:19;2.7;;;1.9;;
17949;SDS011;9100;48.700;9.316;2024-01-06T03:17:19;2.7;;;1.9;;
17949;SDS011;9100;48.700;9.316;2024-01-06T03:18:19;2.7;;;1.9;;
17949;SDS011;9100;48.700;9.316;2024-01-06T03:19:19;2.7;;;1.9;;
17949;SDS011;9100;48.700;9.316;2024-01-06T03:20:20;2.7;;;1.9;;
17949;SDS011;9100;48.700;9.316;2024-01-06T03:21:17;3;;;1.9;;
17949;SDS011;9100;48.700;9.316;2024-01-06T03:21:19;3;;;1.9;;
17949;SDS011;9100;48.700;9.316;2024-01-06T03:22:19;3;;;1.9;;
17949;SDS011;9100;48.700;9.316;2024-01-06T03:23:19;3;;;1.9;;
17949;SDS011;9100;48.700;9.316;2024-01-06T03:24:20;3;;;1.9;;
17949;SDS011;9100;48.700;9.316;2024-01-06T03:25:19;3;;;1.9;;
17949;SDS011;9100;48.700;9.316;2024-01-06T03:26:16;2.6;;;1.8;;
17949;SDS011;9100;48.700;9.316;2024-01-06T03:26:19;2.6;;;1.8;;
17949;SDS011;9100;48.700;9.316;2024-01-06T03:27:19;2.6;;;1.8;;
17949;SDS011;9100;48.700;9.316;2024-01-06T03:28:19;2.6;;;1.8;;
17949;SDS011;9100;48.700;9.316;2024-01-06T03:29:19;2.6;;;1.8;;
17949;SDS011;9100;48.700;9.316;2024-01-06T03:30:19;2.6;;;1.8;;
17949;SDS011;9100;48.700;9.316;2024-01-06T03:31:16;2.5;;;1.6;;
17949;SDS011;9100;48.700;9.316;2024-01-06T03:31:19;2.5;;;1.6;;
17949;SDS011;9100;48.700;9.316;2024-01-06T03:32:20;2.5;;;1.6;;
17949;SDS011;9100;48.700;9.316;2024-01-06T03:33:19;2.5;;;1.6;;
17949;SDS011;9100;48.700;9.316;2024-01-06T03:34:19;2.5;;;1.6;;
17949;SDS011;9100;48.700;9.316;2024-01-06T03:35:19;2.5;;;1.6;;
17949;SDS011;9100;48.700;9.316;2024-01-06T03:36:16;2.1;;;1.9;;
17949;SDS011;9100;48.700;9.316;2024-01-06T03:36:19;2.1;;;1.9;;
17949;SDS011;9100;48.700;9.316;2024-01-06T03:37:19;2.1;;;1.9;;
17949;SDS011;9100;48.700;9.316;2024-01-06T03:38:19;2.1;;;1.9;;
17949;SDS011;9100;48.700;9.316;2024-01-06T03:39:19;2.1;;;1.9;;
17949;SDS011;9100;48.700;9.316;2024-01-06T03:40:19;2.1;;;1.9;;
17949;SDS011;9100;48.700;9.316;2024-01-06T03:41:16;1.9;;;1.8;;
17949;SDS011;9100;48.700;9.316;2024-01-06T03:41:19;1.9;;;1.8;;
17949;SDS011;9100;48.700;9.316;2024-01-06T03:42:20;1.9;;;1.8;;
17949;SDS011;9100;48.700;9.316;2024-01-06T03:43:19;1.9;;;1.8;;
17949;SDS011;9100;48.700;9.316;2024-01-06T03:44:19;1.9;;;1.8;;
17949;SDS011;9100;48.700;9.316;2024-01-06T03:45:19;1.9;;;1.8;;
17949;SDS011;9100;48.700;9.316;2024-01-06T03:46:16;5;;;2.1;;
17949;SDS011;9100;48.700;9.316;2024-01-06T03:46:19;5;;;2.1;;
17949;SDS011;9100;48.700;9.316;2024-01-06T03:47:19;5;;;2.1;;
17949;SDS011;9100;48.700;9.316;2024-01-06T03:48:19;5;;;2.1;;
17949;SDS011;9100;48.700;9.316;2024-01-06T03:49:19;5;;;2.1;;
17949;SDS011;9100;48.700;9.316;2024-01-06T03:50:19;5;;;2.1;;
17949;SDS011;9100;48.700;9.316;2024-01-06T03:51:16;3.4;;;1.6;;
17949;SDS011;9100;48.700;9.316;2024-01-06T03:51:19;3.4;;;1.6;;
17949;SDS011;9100;48.700;9.316;2024-01-06T03:52:19;3.4;;;1.6;;
17949;SDS011;9100;48.700;9.316;2024-01-06T03:53:20;3.4;;;1.6;;
17949;SDS011;9100;48.700;9.316;2024-01-06T03:54:20;3.4;;;1.6;;
17949;SDS011;9100;48.700;9.316;2024-01-06T03:55:19;3.4;;;1.6;;
17949;SDS011;9100;48.700;9.316;2024-01-06T03:56:16;2.5;;;1.8;;
17949;SDS011;9100;48.700;9.316;2024-01-06T03:56:19;2.5;;;1.8;;
17949;SDS011;9100;48.700;9.316;2024-01-06T03:57:20;2.5;;;1.8;;
17949;SDS011;9100;48.700;9.316;2024-01-06T03:58:19;2.5;;;1.8;;
17949;SDS011;9100;48.700;9.316;2024-01-06T03:59:19;2.5;;;1.8;;
17949;SDS011;9100;48.700;9.316;2024-01-06T04:00:19;2.5;;;1.8;;
17949;SDS011;9100;48.700;9.316;2024-01-06T04:01:16;3.1;;;1.9;;
17949;SDS011;9100;48.700;9.316;2024-01-06T04:01:19;3.1;;;1.9;;
17949;SDS011;9100;48.700;9.316;2024-01-06T04:02:20;3.1;;;1.9;;
17949;SDS011;9100;48.700;9.316;2024-01-06T04:03:19;3.1;;;1.9;;
17949;SDS011;9100;48.700;9.316;2024-01-06T04:04:19;3.1;;;1.9;;
17949;SDS011;9100;48.700;9.316;2024-01-06T04:05:20;3.1;;;1.9;;
17949;SDS011;9100;48.700;9.316;2024-01-06T04:06:16;2.3;;;1.5;;
17949;SDS011;9100;48.700;9.316;2024-01-06T04:06:19;2.3;;;1.5;;
17949;SDS011;9100;48.700;9.316;2024-01-06T04:07:19;2.3;;;1.5;;
17949;SDS011;9100;48.700;9.316;2024-01-06T04:08:19;2.3;;;1.5;;
17949;SDS011;9100;48.700;9.316;2024-01-06T04:09:19;2.3;;;1.5;;
17949;SDS011;9100;48.700;9.316;2024-01-06T04:10:19;2.3;;;1.5;;
17949;SDS011;9100;48.700;9.316;2024-01-06T04:11:16;2;;;1.8;;
17949;SDS011;9100;48.700;9.316;2024-01-06T04:11:19;2;;;1.8;;
17949;SDS011;9100;48.700;9.316;2024-01-06T04:12:19;2;;;1.8;;
17949;SDS011;9100;48.700;9.316;2024-01-06T04:13:20;2;;;1.8;;
17949;SDS011;9100;48.700;9.316;2024-01-06T04:14:19;2;;;1.8;;
17949;SDS011;9100;48.700;9.316;2024-01-06T04:15:19;2;;;1.8;;
17949;SDS011;9100;48.700;9.316;2024-01-06T04:16:16;2;;;1.5;;
17949;SDS011;9100;48.700;9.316;2024-01-06T04:16:20;2;;;1.5;;
17949;SDS011;9100;48.700;9.316;2024-01-06T04:17:19;2;;;1.5;;
17949;SDS011;9100;48.700;9.316;2024-01-06T04:18:19;2;;;1.5;;
17949;SDS011;9100;48.700;9.316;2024-01-06T04:19:19;2;;;1.5;;
17949;SDS011;9100;48.700;9.316;2024-01-06T04:20:19;2;;;1.5;;
17949;SDS011;9100;48.700;9.316;2024-01-06T04:21:16;2.9;;;2;;
17949;SDS011;9100;48.700;9.316;2024-01-06T04:21:19;2.9;;;2;;
17949;SDS011;9100;48.700;9.316;2024-01-06T04:22:19;2.9;;;2;;
17949;SDS011;9100;48.700;9.316;2024-01-06T04:23:19;2.9;;;2;;
17949;SDS011;9100;48.700;9.316;2024-01-06T04:24:19;2.9;;;2;;
17949;SDS011;9100;48.700;9.316;2024-01-06T04:25:19;2.9;;;2;;
17949;SDS011;9100;48.700;9.316;2024-01-06T04:26:16;1.9;;;1.7;;
17949;SDS011;9100;48.700;9.316;2024-01-06T04:26:19;1.9;;;1.7;;
17949;SDS011;9100;48.700;9.316;2024-01-06T04:27:19;1.9;;;1.7;;
17949;SDS011;9100;48.700;9.316;2024-01-06T04:28:19;1.9;;;1.7;;
17949;SDS011;9100;48.700;9.316;2024-01-06T04:29:20;1.9;;;1.7;;
17949;SDS011;9100;48.700;9.316;2024-01-06T04:30:20;1.9;;;1.7;;
17949;SDS011;9100;48.700;9.316;2024-01-06T04:31:16;4.2;;;1.9;;
17949;SDS011;9100;48.700;9.316;2024-01-06T04:31:19;4.2;;;1.9;;
17949;SDS011;9100;48.700;9.316;2024-01-06T04:32:20;4.2;;;1.9;;
17949;SDS011;9100;48.700;9.316;2024-01-06T04:33:20;4.2;;;1.9;;
17949;SDS011;9100;48.700;9.316;2024-01-06T04:34:20;4.2;;;1.9;;
17949;SDS011;9100;48.700;9.316;2024-01-06T04:35:20;4.2;;;1.9;;
17949;SDS011;9100;48.700;9.316;2024-01-06T04:36:16;2.3;;;2.1;;
17949;SDS011;9100;48.700;9.316;2024-01-06T04:36:19;2.3;;;2.1;;
17949;SDS011;9100;48.700;9.316;2024-01-06T04:37:20;2.3;;;2.1;;
17949;SDS011;9100;48.700;9.316;2024-01-06T04:38:19;2.3;;;2.1;;
17949;SDS011;9100;48.700;9.316;2024-01-06T04:39:20;2.3;;;2.1;;
17949;SDS011;9100;48.700;9.316;2024-01-06T04:40:20;2.3;;;2.1;;
17949;SDS011;9100;48.700;9.316;2024-01-06T04:41:16;3.2;;;2.1;;
17949;SDS011;9100;48.700;9.316;2024-01-06T04:41:19;3.2;;;2.1;;
17949;SDS011;9100;48.700;9.316;2024-01-06T04:42:19;3.2;;;2.1;;
17949;SDS011;9100;48.700;9.316;2024-01-06T04:43:20;3.2;;;2.1;;
17949;SDS011;9100;48.700;9.316;2024-01-06T04:44:20;3.2;;;2.1;;
17949;SDS011;9100;48.700;9.316;2024-01-06T04:45:19;3.2;;;2.1;;
17949;SDS011;9100;48.700;9.316;2024-01-06T04:46:16;2.1;;;1.9;;
17949;SDS011;9100;48.700;9.316;2024-01-06T04:46:19;2.1;;;1.9;;
17949;SDS011;9100;48.700;9.316;2024-01-06T04:47:19;2.1;;;1.9;;
17949;SDS011;9100;48.700;9.316;2024-01-06T04:48:19;2.1;;;1.9;;
17949;SDS011;9100;48.700;9.316;2024-01-06T04:49:19;2.1;;;1.9;;
17949;SDS011;9100;48.700;9.316;2024-01-06T04:50:19;2.1;;;1.9;;
17949;SDS011;9100;48.700;9.316;2024-01-06T04:51:16;4.3;;;1.9;;
17949;SDS011;9100;48.700;9.316;2024-01-06T04:51:19;4.3;;;1.9;;
17949;SDS011;9100;48.700;9.316;2024-01-06T04:52:19;4.3;;;1.9;;
17949;SDS011;9100;48.700;9.316;2024-01-06T04:53:19;4.3;;;1.9;;
17949;SDS011;9100;48.700;9.316;2024-01-06T04:54:20;4.3;;;1.9;;
17949;SDS011;9100;48.700;9.316;2024-01-06T04:55:19;4.3;;;1.9;;
17949;SDS011;9100;48.700;9.316;2024-01-06T04:56:16;4;;;2.2;;
17949;SDS011;9100;48.700;9.316;2024-01-06T04:56:19;4;;;2.2;;
17949;SDS011;9100;48.700;9.316;2024-01-06T04:57:19;4;;;2.2;;
17949;SDS011;9100;48.700;9.316;2024-01-06T04:58:19;4;;;2.2;;
17949;SDS011;9100;48.700;9.316;2024-01-06T04:59:19;4;;;2.2;;
17949;SDS011;9100;48.700;9.316;2024-01-06T05:00:19;4;;;2.2;;
17949;SDS011;9100;48.700;9.316;2024-01-06T05:01:16;1.9;;;1.7;;
17949;SDS011;9100;48.700;9.316;2024-01-06T05:01:19;1.9;;;1.7;;
17949;SDS011;9100;48.700;9.316;2024-01-06T05:02:20;1.9;;;1.7;;
17949;SDS011;9100;48.700;9.316;2024-01-06T05:03:20;1.9;;;1.7;;
17949;SDS011;9100;48.700;9.316;2024-01-06T05:04:19;1.9;;;1.7;;
17949;SDS011;9100;48.700;9.316;2024-01-06T05:05:19;1.9;;;1.7;;
17949;SDS011;9100;48.700;9.316;2024-01-06T05:06:16;4;;;2.1;;
17949;SDS011;9100;48.700;9.316;2024-01-06T05:06:19;4;;;2.1;;
17949;SDS011;9100;48.700;9.316;2024-01-06T05:07:19;4;;;2.1;;
17949;SDS011;9100;48.700;9.316;2024-01-06T05:08:19;4;;;2.1;;
17949;SDS011;9100;48.700;9.316;2024-01-06T05:09:19;4;;;2.1;;
17949;SDS011;9100;48.700;9.316;2024-01-06T05:10:20;4;;;2.1;;
17949;SDS011;9100;48.700;9.316;2024-01-06T05:11:16;2.7;;;1.9;;
17949;SDS011;9100;48.700;9.316;2024-01-06T05:11:19;2.7;;;1.9;;
17949;SDS011;9100;48.700;9.316;2024-01-06T05:12:19;2.7;;;1.9;;
17949;SDS011;9100;48.700;9.316;2024-01-06T05:13:20;2.7;;;1.9;;
17949;SDS011;9100;48.700;9.316;2024-01-06T05:14:20;2.7;;;1.9;;
17949;SDS011;9100;48.700;9.316;2024-01-06T05:15:20;2.7;;;1.9;;
17949;SDS011;9100;48.700;9.316;2024-01-06T05:16:16;3.2;;;1.9;;
17949;SDS011;9100;48.700;9.316;2024-01-06T05:16:19;3.2;;;1.9;;